Glasgow, MT

8:56 PM MDT on September 04, 2015 (GMT -0600)
APRSWXNET | | Change Station
CLOSE
Current Station
Personal Weather Station
Location: Glasgow, MT
Elevation: 2211 ft
Nearby Weather Stations
Active Advisory: Lake Wind Advisory

Elev 2211 ft 48.19 °N, 106.61 °W | Updated 21 minutes ago

Overcast
Overcast
58 °F
Feels Like 58 °F
N
24
Wind Variable Wind from North
Gusts 35.0 mph

Today
High -- | Low -- °F
--% Chance of Precip.
Yesterday
High -- | Low -- °F
Precip. -- in
6:27 AM 7:41 PM
Waning Gibbous, 53% visible
Pressure 29.95 in
Visibility 10.0 miles
Clouds Overcast 4300 ft
Dew Point 47 °F
Humidity 66%
Rainfall in
Snow Depth Not available.
UV 0 out of 12
Pollen 9.60 out of 12
Air Quality Not available.
Flu Activity Not available.
METAR KGGW 050253Z AUTO 03017G25KT 10SM OVC043 14/07 A2995 RMK AO2 PK WND 04033/0156 SLP142 T01440072 53021
Pressure 29.95 in
Visibility 10.0 miles
Clouds Overcast 4300 ft
Dew Point 47 °F
Humidity 66%
Rainfall in
Snow Depth Not available.
UV 0 out of 12
Pollen 9.60 out of 12
Air Quality Not available.
Flu Activity Not available.
METAR KGGW 050253Z AUTO 03017G25KT 10SM OVC043 14/07 A2995 RMK AO2 PK WND 04033/0156 SLP142 T01440072 53021

10-Day Weather Forecast

×

Almanac

Astronomy

Sep. 04, 2015 Rise Set
Actual Time
Civil Twilight
Nautical Twilight
Astronomical Twilight
Moon
Length of Visible Light
Length of Day
Tomorrow will be .
, % of the Moon is Illuminated

Today's Extremes

State Highs State Lows

Community

WunderPhotos

Upload Photos

1,852,392 photos uploaded!

WunderBlogs® & News

Nearby

Air Quality

  Air Quality AQ Index Pollutant
Not available.

Snow Depth

Station Depth Elevation

Earthquake Activity

City Distance Mag. Time & Date
Minimum magnitude displayed is 2.5.

Coastal Water Temperatures

Place Temperature

Stations

Nearby Weather Stations

Station Location Temp. Windchill Dew Point Humidity Wind Precip. Elev Updated Type
                   
Lake Wind Advisory
Statement as of 8:43 PM MDT on September 04, 2015

... Lake Wind Advisory in effect until noon MDT Saturday for Fort
Peck Lake...

The National Weather Service in Glasgow has issued a lake Wind
Advisory for Fort Peck Lake... which is in effect until noon MDT
Saturday.

* Timing... tonight through Saturday morning

* winds... from the east and northeast at 20 to 30 mph... becoming
erratic and stronger with passing overnight thunderstorms as
gusts up to 40 mph.

* Impacts... sudden and erratic shifts in wind speed and direction
near storms will make the open waters of the lake rough and
hazardous with high waves which may tip or swamp smaller craft.

Precautionary/preparedness actions...

Boaters should use extreme caution if venturing onto Fort Peck
Lake. For your personal safety... avoid the open waters. Stay
close to shore or around protected areas.



Http://weather.Gov/Glasgow